Time;durP1;ratioP1;P1;durP2;ratioP2;P2;SDS_P1;SDS_P2;PMS_P1;PMS_P2;Temp;Humidity;BMP_temperature;BMP_pressure;BME280_temperature;BME280_humidity;BME280_pressure;Samples;Min_cycle;Max_cycle;Signal;HPM_P1;HPM_P2
2022/04/28 00:00:57;;;;;;;6.93;4.38;;;11.50;79.00;;;;;;6174693;23;20409;-76
2022/04/28 00:03:24;;;;;;;5.18;4.07;;;11.50;79.30;;;;;;6174827;23;20450;-76
2022/04/28 00:05:52;;;;;;;4.95;4.38;;;11.40;79.70;;;;;;6174654;23;20429;-76
2022/04/28 00:08:19;;;;;;;4.35;3.95;;;11.50;78.40;;;;;;6174400;23;20374;-77
2022/04/28 00:10:46;;;;;;;5.90;3.97;;;11.60;77.70;;;;;;6174234;23;20398;-76
2022/04/28 00:13:13;;;;;;;4.70;3.70;;;11.60;76.80;;;;;;6175622;23;20370;-77
2022/04/28 00:15:40;;;;;;;5.20;4.13;;;11.70;76.80;;;;;;6174474;23;20373;-77
2022/04/28 00:18:07;;;;;;;5.47;3.97;;;11.70;77.60;;;;;;6174237;23;20371;-76
2022/04/28 00:20:35;;;;;;;5.93;3.92;;;11.70;77.40;;;;;;6151455;23;20445;-77
2022/04/28 00:23:02;;;;;;;5.22;4.32;;;11.60;78.50;;;;;;6173894;23;20376;-76
2022/04/28 00:25:29;;;;;;;5.97;4.63;;;11.50;79.00;;;;;;6174194;23;20370;-76
2022/04/28 00:27:55;;;;;;;5.22;4.20;;;11.50;79.00;;;;;;6174166;23;20390;-76
2022/04/28 00:30:22;;;;;;;5.40;4.40;;;11.50;78.80;;;;;;6174281;23;20425;-77
2022/04/28 00:32:49;;;;;;;7.82;4.38;;;11.50;79.10;;;;;;6173787;23;20370;-76
2022/04/28 00:35:16;;;;;;;4.25;3.45;;;11.50;78.10;;;;;;6151416;23;20378;-76
2022/04/28 00:37:43;;;;;;;4.88;3.63;;;11.50;77.60;;;;;;6173965;23;20893;-79
2022/04/28 00:40:10;;;;;;;5.68;3.83;;;11.60;77.40;;;;;;6155840;23;20368;-76
2022/04/28 00:42:37;;;;;;;4.83;4.07;;;11.50;78.10;;;;;;6158128;23;20483;-76
2022/04/28 00:45:04;;;;;;;4.77;3.43;;;11.40;79.40;;;;;;6173594;23;20433;-76
2022/04/28 00:53:04;;;;;;;4.35;3.83;;;11.40;78.40;;;;;;6151019;23;20901;-76
2022/04/28 00:55:31;;;;;;;5.28;3.90;;;11.40;79.30;;;;;;6174194;23;20386;-80
2022/04/28 00:57:59;;;;;;;5.88;4.25;;;11.40;78.90;;;;;;6149155;23;20917;-76
2022/04/28 01:00:26;;;;;;;4.67;3.80;;;11.50;78.50;;;;;;6174978;23;20370;-76
2022/04/28 01:02:54;;;;;;;4.63;4.10;;;11.60;78.30;;;;;;6173693;23;20386;-77
2022/04/28 01:05:21;;;;;;;5.13;4.18;;;11.70;78.80;;;;;;6175323;23;20858;-80
2022/04/28 01:07:48;;;;;;;6.05;4.70;;;11.70;78.90;;;;;;6174237;23;20378;-77
2022/04/28 01:10:15;;;;;;;4.80;3.67;;;11.80;78.20;;;;;;6174229;23;20440;-80
2022/04/28 01:12:43;;;;;;;3.67;3.38;;;11.80;78.20;;;;;;6174098;23;20432;-77
2022/04/28 01:15:11;;;;;;;3.60;3.28;;;11.80;78.10;;;;;;6173445;23;20389;-77
2022/04/28 01:17:37;;;;;;;6.30;4.05;;;11.90;78.40;;;;;;6174823;23;20440;-77
2022/04/28 01:20:05;;;;;;;4.70;4.20;;;11.90;78.40;;;;;;6175442;23;20713;-77
2022/04/28 01:22:32;;;;;;;5.15;4.13;;;11.90;78.60;;;;;;6176948;23;20413;-80
2022/04/28 01:25:07;;;;;;;5.70;4.47;;;12.00;78.00;;;;;;6174867;23;20409;-76
2022/04/28 01:27:34;;;;;;;4.32;3.83;;;12.00;78.10;;;;;;6176060;23;20380;-77
2022/04/28 01:30:03;;;;;;;3.67;3.38;;;11.90;77.70;;;;;;6175702;23;20901;-77
2022/04/28 01:32:30;;;;;;;5.25;4.18;;;12.00;77.50;;;;;;6176470;23;20855;-77
2022/04/28 01:34:57;;;;;;;5.32;4.55;;;12.00;78.00;;;;;;6149564;23;20419;-77
2022/04/28 01:37:25;;;;;;;5.85;4.30;;;12.00;77.60;;;;;;6176697;23;20367;-76
2022/04/28 01:39:53;;;;;;;5.35;4.70;;;12.00;77.70;;;;;;6176046;23;20393;-80
2022/04/28 01:42:20;;;;;;;4.53;4.13;;;11.90;78.70;;;;;;6177402;23;20410;-80
2022/04/28 01:44:47;;;;;;;4.55;4.15;;;11.90;79.40;;;;;;6154022;23;20384;-80
2022/04/28 01:47:14;;;;;;;5.50;4.07;;;11.90;79.20;;;;;;6175657;23;20847;-76
2022/04/28 01:49:40;;;;;;;4.57;4.18;;;11.90;78.90;;;;;;6175775;23;20386;-78
2022/04/28 01:54:59;;;;;;;5.78;4.10;;;12.00;77.70;;;;;;6153294;23;20447;-77
2022/04/28 01:57:27;;;;;;;4.32;3.63;;;12.10;76.30;;;;;;6157499;23;20849;-77
2022/04/28 01:59:58;;;;;;;5.35;3.70;;;12.10;74.90;;;;;;6146527;23;20380;-77
2022/04/28 02:02:25;;;;;;;4.65;2.92;;;12.20;74.30;;;;;;6145215;23;20387;-78
2022/04/28 02:04:58;;;;;;;3.08;2.80;;;12.30;72.60;;;;;;6147000;23;20376;-76
2022/04/28 02:07:26;;;;;;;3.35;2.47;;;12.40;70.70;;;;;;6145620;23;20387;-80
2022/04/28 02:09:53;;;;;;;3.40;2.58;;;12.60;69.40;;;;;;6146107;23;20746;-77
2022/04/28 02:12:20;;;;;;;3.78;2.35;;;12.70;68.40;;;;;;6145657;23;20376;-76
2022/04/28 02:14:47;;;;;;;4.30;2.63;;;12.80;67.70;;;;;;6146977;23;20833;-76
2022/04/28 02:17:18;;;;;;;2.97;2.60;;;12.90;67.30;;;;;;6145504;23;20448;-76
2022/04/28 02:19:44;;;;;;;3.95;3.00;;;12.90;67.20;;;;;;6146207;23;20435;-77
2022/04/28 02:22:11;;;;;;;4.35;2.75;;;12.80;68.00;;;;;;6145226;23;20380;-76
2022/04/28 02:24:38;;;;;;;4.47;2.80;;;12.80;68.10;;;;;;6145894;23;20376;-76
2022/04/28 02:27:06;;;;;;;3.92;2.50;;;12.80;67.50;;;;;;6120726;23;20526;-77
2022/04/28 02:29:34;;;;;;;3.73;2.40;;;12.80;67.40;;;;;;6146088;23;20492;-76
2022/04/28 02:32:01;;;;;;;3.42;2.42;;;12.80;67.20;;;;;;6121080;23;20391;-76
2022/04/28 02:34:28;;;;;;;3.83;2.70;;;12.80;67.10;;;;;;6145607;23;20390;-79
2022/04/28 02:36:55;;;;;;;3.50;2.65;;;12.80;67.20;;;;;;6145676;23;20478;-80
2022/04/28 02:39:22;;;;;;;3.30;2.80;;;12.70;67.30;;;;;;6121343;23;20380;-76
2022/04/28 02:41:49;;;;;;;3.80;2.60;;;12.70;67.50;;;;;;6145737;23;20380;-77
2022/04/28 02:44:16;;;;;;;4.07;3.25;;;12.60;67.60;;;;;;6145331;23;20971;-80
2022/04/28 02:46:45;;;;;;;4.22;2.67;;;12.70;67.70;;;;;;6122991;23;20412;-80
2022/04/28 02:49:13;;;;;;;4.07;2.83;;;12.60;68.40;;;;;;6146024;23;20376;-77
2022/04/28 02:51:40;;;;;;;4.00;2.75;;;12.50;68.20;;;;;;6146016;23;20380;-77
2022/04/28 02:54:07;;;;;;;3.40;2.97;;;12.40;68.20;;;;;;6120595;23;20778;-79
2022/04/28 02:56:35;;;;;;;3.88;2.80;;;12.40;68.20;;;;;;6145654;23;20375;-76
2022/04/28 02:59:03;;;;;;;4.45;3.22;;;12.30;68.30;;;;;;6145344;23;20760;-77
2022/04/28 03:01:29;;;;;;;3.42;2.80;;;12.30;69.00;;;;;;6163919;23;20428;-77
2022/04/28 03:03:56;;;;;;;5.13;3.17;;;12.30;68.90;;;;;;6175370;23;20901;-75
2022/04/28 03:11:55;;;;;;;4.93;3.13;;;12.40;68.40;;;;;;6152699;23;20472;-76
2022/04/28 03:14:21;;;;;;;3.53;3.00;;;12.40;68.20;;;;;;6175479;23;20447;-79
2022/04/28 03:16:49;;;;;;;4.20;3.00;;;12.50;67.80;;;;;;6175546;23;20454;-79
2022/04/28 03:19:16;;;;;;;4.43;2.95;;;12.50;67.70;;;;;;6174756;23;20436;-80
2022/04/28 03:21:43;;;;;;;5.07;3.55;;;12.50;69.20;;;;;;6174629;23;20377;-76
2022/04/28 03:24:10;;;;;;;4.65;3.13;;;12.50;67.70;;;;;;6174168;23;20677;-77
2022/04/28 03:26:39;;;;;;;4.10;2.77;;;12.50;68.00;;;;;;6175350;23;20699;-77
2022/04/28 03:29:06;;;;;;;3.78;3.03;;;12.50;68.30;;;;;;6176170;23;20766;-77
2022/04/28 03:31:33;;;;;;;4.07;3.45;;;12.50;68.40;;;;;;6174158;23;20375;-79
2022/04/28 03:34:00;;;;;;;4.35;3.08;;;12.50;68.40;;;;;;6175399;23;20870;-76
2022/04/28 03:39:12;;;;;;;5.03;3.10;;;12.50;68.70;;;;;;6152497;23;20843;-77
2022/04/28 03:41:40;;;;;;;4.05;3.10;;;12.40;68.80;;;;;;6173996;23;20380;-77
2022/04/28 03:44:08;;;;;;;4.30;3.20;;;12.40;69.20;;;;;;6151656;23;20374;-77
2022/04/28 03:46:36;;;;;;;5.68;3.40;;;12.40;69.20;;;;;;6162113;23;20370;-77
2022/04/28 03:49:03;;;;;;;5.03;3.40;;;12.40;69.20;;;;;;6151630;23;20854;-80
2022/04/28 03:51:30;;;;;;;4.57;3.65;;;12.30;70.90;;;;;;6174283;23;20390;-78
2022/04/28 03:54:00;;;;;;;4.82;4.20;;;12.10;72.50;;;;;;6149315;23;20731;-80
2022/04/28 03:56:31;;;;;;;4.47;3.45;;;11.90;73.60;;;;;;6175328;23;20370;-79
2022/04/28 03:59:02;;;;;;;4.17;3.60;;;11.80;74.00;;;;;;6151491;23;21334;-76
2022/04/28 04:01:29;;;;;;;4.07;3.60;;;11.80;73.70;;;;;;6174792;23;20382;-80
2022/04/28 04:03:57;;;;;;;4.30;3.80;;;11.80;74.10;;;;;;6174098;23;20413;-77
2022/04/28 04:06:24;;;;;;;4.85;4.32;;;11.80;74.40;;;;;;6174320;23;20377;-77
2022/04/28 04:08:51;;;;;;;5.20;3.92;;;11.70;75.40;;;;;;6151158;23;20406;-77
2022/04/28 04:11:18;;;;;;;4.05;3.67;;;11.70;75.50;;;;;;6151115;23;20397;-77
2022/04/28 04:13:46;;;;;;;6.50;4.85;;;11.60;75.50;;;;;;6175452;23;20425;-80
2022/04/28 04:16:13;;;;;;;4.53;4.13;;;11.60;76.50;;;;;;6173586;23;20374;-77
2022/04/28 04:18:40;;;;;;;5.80;4.40;;;11.50;76.50;;;;;;6174955;23;20377;-78
2022/04/28 04:21:07;;;;;;;5.72;4.13;;;11.50;76.90;;;;;;6174699;23;20370;-77
2022/04/28 04:23:34;;;;;;;5.32;3.83;;;11.50;77.50;;;;;;6173884;23;20366;-76
2022/04/28 04:26:01;;;;;;;4.38;3.97;;;11.50;77.20;;;;;;6150795;23;20370;-76
2022/04/28 04:28:29;;;;;;;4.57;3.70;;;11.50;77.90;;;;;;6150444;23;20405;-80
2022/04/28 04:33:41;;;;;;;5.32;4.32;;;11.40;78.70;;;;;;6151087;23;20398;-77
2022/04/28 04:36:08;;;;;;;5.43;4.50;;;11.30;79.10;;;;;;6151823;23;20370;-77
2022/04/28 04:38:35;;;;;;;4.10;3.80;;;11.30;78.90;;;;;;6150375;23;20392;-76
2022/04/28 04:41:02;;;;;;;5.00;4.13;;;11.30;78.60;;;;;;6174827;23;20465;-77
2022/04/28 04:43:29;;;;;;;4.43;4.03;;;11.40;78.10;;;;;;6172648;23;20410;-76
2022/04/28 04:45:56;;;;;;;4.78;4.25;;;11.40;78.20;;;;;;6174231;23;20433;-76
2022/04/28 04:48:24;;;;;;;5.50;4.55;;;11.40;78.90;;;;;;6173575;23;20780;-79
2022/04/28 04:50:52;;;;;;;4.68;4.15;;;11.30;79.20;;;;;;6175020;23;20365;-76
2022/04/28 04:53:19;;;;;;;6.05;4.80;;;11.30;78.70;;;;;;6148703;23;20374;-77
2022/04/28 04:55:46;;;;;;;5.45;4.68;;;11.30;78.60;;;;;;6175302;23;20432;-80
2022/04/28 04:58:14;;;;;;;5.10;4.50;;;11.40;78.40;;;;;;6175829;23;20380;-78
2022/04/28 05:00:41;;;;;;;6.25;4.35;;;11.40;78.10;;;;;;6175689;23;20751;-80
2022/04/28 05:03:07;;;;;;;5.60;4.32;;;11.60;76.20;;;;;;6177058;23;20444;-78
2022/04/28 05:05:35;;;;;;;5.03;3.72;;;11.70;74.40;;;;;;6175460;23;20701;-77
2022/04/28 05:08:02;;;;;;;4.07;3.38;;;11.90;73.50;;;;;;6175105;23;20374;-76
2022/04/28 05:10:29;;;;;;;4.22;3.58;;;12.10;71.90;;;;;;6176441;23;20866;-76
2022/04/28 05:12:56;;;;;;;4.78;3.33;;;12.30;71.40;;;;;;6153530;23;20834;-78
2022/04/28 05:15:23;;;;;;;5.93;3.97;;;12.50;70.50;;;;;;6175469;23;20374;-80
2022/04/28 05:17:50;;;;;;;5.00;3.40;;;12.60;69.60;;;;;;6153580;23;20373;-79
2022/04/28 05:20:16;;;;;;;5.13;3.65;;;12.70;69.80;;;;;;6154132;23;20826;-80
2022/04/28 05:22:43;;;;;;;5.05;3.25;;;12.80;69.40;;;;;;6151692;23;20374;-80
2022/04/28 05:25:10;;;;;;;4.95;3.40;;;12.90;69.30;;;;;;6154344;23;20382;-80
2022/04/28 05:27:37;;;;;;;5.43;3.67;;;13.00;68.80;;;;;;6175776;23;20877;-78
2022/04/28 05:30:04;;;;;;;4.65;3.53;;;13.10;68.80;;;;;;6173820;23;20380;-77
2022/04/28 05:32:31;;;;;;;4.63;3.60;;;13.10;68.70;;;;;;6175189;23;20543;-77
2022/04/28 05:34:58;;;;;;;6.57;3.70;;;13.20;67.90;;;;;;6175609;23;20374;-77
2022/04/28 05:37:25;;;;;;;5.17;3.57;;;13.20;68.00;;;;;;6174588;23;20405;-77
2022/04/28 05:39:52;;;;;;;5.85;4.57;;;13.20;68.50;;;;;;6152077;23;20370;-78
2022/04/28 05:42:19;;;;;;;11.95;5.82;;;13.20;70.10;;;;;;6175909;23;20381;-77
2022/04/28 05:47:32;;;;;;;7.25;4.90;;;13.00;73.20;;;;;;6152163;23;20759;-77
2022/04/28 05:49:59;;;;;;;5.82;4.22;;;12.90;73.40;;;;;;6175669;23;20389;-77
2022/04/28 05:52:26;;;;;;;5.32;4.35;;;13.00;73.70;;;;;;6174688;23;20386;-77
2022/04/28 05:54:53;;;;;;;6.53;4.82;;;13.00;74.70;;;;;;6176577;23;20362;-78
2022/04/28 05:57:20;;;;;;;7.93;4.85;;;13.00;75.70;;;;;;6175616;23;20374;-80
2022/04/28 05:59:46;;;;;;;5.65;4.85;;;13.00;77.40;;;;;;6175270;23;20372;-78
2022/04/28 06:02:13;;;;;;;4.97;4.47;;;13.00;78.00;;;;;;6176151;23;20755;-80
2022/04/28 06:04:40;;;;;;;9.07;5.67;;;13.10;77.00;;;;;;6152198;23;20437;-78
2022/04/28 06:07:07;;;;;;;5.55;4.50;;;13.10;76.50;;;;;;6176006;23;20909;-77
2022/04/28 06:09:34;;;;;;;4.88;4.32;;;13.20;76.50;;;;;;6174980;23;20429;-77
2022/04/28 06:12:01;;;;;;;5.68;4.20;;;13.30;75.90;;;;;;6152398;23;20374;-77
2022/04/28 06:14:28;;;;;;;6.80;4.68;;;13.50;75.30;;;;;;6176485;23;20370;-80
2022/04/28 06:16:56;;;;;;;6.18;5.15;;;13.60;74.40;;;;;;6175226;23;20393;-80
2022/04/28 06:19:24;;;;;;;4.93;4.50;;;13.70;73.80;;;;;;6175151;23;20819;-78
2022/04/28 06:21:51;;;;;;;7.97;4.90;;;13.90;73.20;;;;;;6176027;23;20374;-77
2022/04/28 06:24:18;;;;;;;8.27;5.30;;;14.00;72.90;;;;;;6152724;23;20408;-78
2022/04/28 06:26:45;;;;;;;19.48;7.50;;;14.10;72.40;;;;;;6174704;23;20421;-77
2022/04/28 06:29:11;;;;;;;7.03;5.30;;;14.10;74.40;;;;;;6175994;23;20374;-77
2022/04/28 06:31:38;;;;;;;7.85;5.20;;;14.10;74.10;;;;;;6175006;23;20371;-77
2022/04/28 06:34:05;;;;;;;11.52;6.43;;;14.10;73.60;;;;;;6175323;23;20401;-77
2022/04/28 06:36:34;;;;;;;8.45;5.22;;;14.20;74.00;;;;;;6174254;23;20917;-77
2022/04/28 06:39:02;;;;;;;5.70;5.20;;;14.20;73.80;;;;;;6176074;23;20695;-80
2022/04/28 06:41:29;;;;;;;10.18;5.63;;;14.20;73.70;;;;;;6174990;23;20859;-78
2022/04/28 06:43:56;;;;;;;8.82;5.45;;;14.30;73.50;;;;;;6174565;23;20831;-77
2022/04/28 06:46:23;;;;;;;5.63;4.78;;;14.30;73.50;;;;;;6176399;23;20370;-81
2022/04/28 06:48:50;;;;;;;6.65;5.07;;;14.40;73.10;;;;;;6173700;23;20392;-77
2022/04/28 06:51:17;;;;;;;15.77;7.07;;;14.30;72.80;;;;;;6174769;23;20382;-77
2022/04/28 06:53:44;;;;;;;7.10;4.78;;;14.40;73.30;;;;;;6174134;23;20759;-78
2022/04/28 06:56:11;;;;;;;9.68;4.78;;;14.50;71.90;;;;;;6151459;23;20378;-81
2022/04/28 06:58:38;;;;;;;6.13;4.50;;;14.70;71.00;;;;;;6151609;23;20380;-80
2022/04/28 07:01:05;;;;;;;6.18;4.47;;;14.80;68.80;;;;;;6175809;23;20382;-81
2022/04/28 07:03:32;;;;;;;6.00;4.40;;;14.90;68.80;;;;;;6175752;23;20386;-77
2022/04/28 07:06:00;;;;;;;6.32;4.65;;;15.10;66.80;;;;;;6174283;23;20406;-77
2022/04/28 07:08:27;;;;;;;7.28;4.90;;;15.30;65.60;;;;;;6176729;23;20378;-77
2022/04/28 07:10:55;;;;;;;6.65;5.03;;;15.40;64.40;;;;;;6150991;23;20382;-77
2022/04/28 07:13:22;;;;;;;8.38;5.22;;;15.50;63.70;;;;;;6175128;23;20437;-77
2022/04/28 07:15:49;;;;;;;6.53;5.28;;;15.50;62.70;;;;;;6151890;23;20485;-78
2022/04/28 07:18:16;;;;;;;6.05;4.90;;;15.60;62.70;;;;;;6175515;23;20382;-78
2022/04/28 07:20:44;;;;;;;7.95;5.07;;;15.70;63.40;;;;;;6151105;23;20382;-78
2022/04/28 07:23:12;;;;;;;6.18;5.18;;;15.80;64.80;;;;;;6174696;23;20370;-78
2022/04/28 07:25:40;;;;;;;7.20;5.35;;;15.90;62.80;;;;;;6175611;23;20901;-78
2022/04/28 07:28:07;;;;;;;7.85;5.50;;;16.00;61.60;;;;;;6174399;23;20440;-77
2022/04/28 07:30:33;;;;;;;7.25;5.70;;;16.10;61.10;;;;;;6175566;23;20751;-77
2022/04/28 07:33:00;;;;;;;7.15;5.85;;;16.20;61.10;;;;;;6174219;23;20398;-80
2022/04/28 07:35:27;;;;;;;9.55;5.85;;;16.30;60.60;;;;;;6176059;23;20374;-77
2022/04/28 07:37:54;;;;;;;6.53;5.57;;;16.40;60.20;;;;;;6175624;23;20374;-80
2022/04/28 07:40:25;;;;;;;9.02;5.72;;;16.40;60.00;;;;;;6174248;23;20465;-77
2022/04/28 07:42:52;;;;;;;9.05;6.47;;;16.60;61.40;;;;;;6175152;23;20697;-77
2022/04/28 07:45:19;;;;;;;7.07;5.97;;;16.70;59.90;;;;;;6174679;23;20860;-77
2022/04/28 07:47:46;;;;;;;7.32;5.55;;;16.80;61.90;;;;;;6152167;23;20429;-77
2022/04/28 07:50:13;;;;;;;7.53;5.90;;;17.00;61.20;;;;;;6174450;23;20366;-78
2022/04/28 07:52:41;;;;;;;5.97;5.05;;;17.10;60.30;;;;;;6175099;23;20381;-78
2022/04/28 07:55:08;;;;;;;6.00;4.50;;;17.30;59.90;;;;;;6174692;23;20402;-77
2022/04/28 07:57:35;;;;;;;5.57;4.82;;;17.60;58.30;;;;;;6150725;23;20432;-78
2022/04/28 08:00:05;;;;;;;6.38;4.78;;;17.90;58.70;;;;;;6174783;23;20411;-81
2022/04/28 08:02:32;;;;;;;6.53;4.22;;;17.90;57.20;;;;;;6174592;23;20374;-80
2022/04/28 08:05:00;;;;;;;7.03;4.93;;;17.90;55.50;;;;;;6151788;23;20424;-78
2022/04/28 08:07:28;;;;;;;6.15;4.80;;;18.00;55.70;;;;;;6174992;23;20432;-78
2022/04/28 08:09:55;;;;;;;6.38;4.22;;;18.00;56.60;;;;;;6173737;23;20374;-78
2022/04/28 08:12:22;;;;;;;6.10;3.85;;;17.90;54.60;;;;;;6174571;23;20381;-78
2022/04/28 08:15:10;;;;;;;5.40;3.40;;;18.10;53.70;;;;;;6169804;23;20394;-77
2022/04/28 08:17:37;;;;;;;4.88;2.80;;;18.10;51.30;;;;;;6150815;23;20835;-78
2022/04/28 08:20:04;;;;;;;5.97;3.00;;;18.00;49.30;;;;;;6174802;23;20377;-77
2022/04/28 08:22:31;;;;;;;5.88;2.83;;;18.00;47.40;;;;;;6174901;23;20425;-78
2022/04/28 08:24:58;;;;;;;5.43;2.42;;;18.20;47.20;;;;;;6173602;23;20449;-81
2022/04/28 08:27:25;;;;;;;4.43;2.35;;;18.40;50.10;;;;;;6175661;23;20834;-77
2022/04/28 08:29:52;;;;;;;5.00;2.35;;;18.60;46.50;;;;;;6175251;23;20425;-77
2022/04/28 08:32:19;;;;;;;4.93;2.70;;;18.70;46.20;;;;;;6176281;23;20381;-77
2022/04/28 08:34:46;;;;;;;4.43;2.67;;;18.40;45.60;;;;;;6176358;23;20747;-77
2022/04/28 08:37:13;;;;;;;5.37;2.53;;;18.60;45.60;;;;;;6176296;23;20393;-77
2022/04/28 08:39:40;;;;;;;4.60;2.63;;;18.80;45.10;;;;;;6176554;23;20378;-81
2022/04/28 08:42:11;;;;;;;4.78;2.70;;;18.90;44.90;;;;;;6176217;23;20428;-78
2022/04/28 08:44:39;;;;;;;3.72;2.40;;;18.80;43.80;;;;;;6176316;23;20834;-79
2022/04/28 08:47:07;;;;;;;4.13;2.40;;;18.90;44.60;;;;;;6152485;23;20769;-77
2022/04/28 08:49:34;;;;;;;4.25;2.38;;;18.90;43.30;;;;;;6176822;23;20382;-78
2022/04/28 08:52:02;;;;;;;6.20;2.55;;;19.10;46.10;;;;;;6175544;23;20954;-78
2022/04/28 08:54:30;;;;;;;3.57;2.33;;;19.20;42.50;;;;;;6151817;23;20374;-77
2022/04/28 08:57:04;;;;;;;4.18;2.53;;;19.50;43.90;;;;;;6174403;23;20464;-77
2022/04/28 08:59:31;;;;;;;3.00;2.00;;;19.70;43.80;;;;;;6176698;23;20378;-79
2022/04/28 09:01:58;;;;;;;2.85;1.88;;;19.70;43.30;;;;;;6152739;23;20711;-81
2022/04/28 09:04:27;;;;;;;3.20;2.30;;;19.90;43.40;;;;;;6176459;23;20380;-78
2022/04/28 09:06:55;;;;;;;2.90;2.03;;;20.00;41.90;;;;;;6176145;23;20397;-79
2022/04/28 09:09:24;;;;;;;3.50;2.17;;;20.00;42.10;;;;;;6134627;23;20396;-78
2022/04/28 09:11:53;;;;;;;3.20;2.00;;;20.20;42.20;;;;;;6170454;23;20680;-78
2022/04/28 09:14:22;;;;;;;3.40;1.75;;;20.30;42.20;;;;;;6174802;23;20377;-79
2022/04/28 09:16:56;;;;;;;2.80;1.90;;;20.00;43.20;;;;;;6176216;23;20382;-78
2022/04/28 09:19:28;;;;;;;2.42;1.60;;;20.10;43.00;;;;;;6150831;23;20377;-78
2022/04/28 09:22:00;;;;;;;3.33;1.65;;;19.90;40.70;;;;;;6177757;23;20382;-78
2022/04/28 09:24:28;;;;;;;3.20;2.33;;;19.90;42.20;;;;;;6175648;23;20400;-79
2022/04/28 09:26:55;;;;;;;2.72;1.60;;;20.00;41.00;;;;;;6176799;23;20378;-78
2022/04/28 09:29:26;;;;;;;5.10;2.08;;;20.10;42.90;;;;;;6151125;23;20423;-81
2022/04/28 09:31:54;;;;;;;3.20;1.90;;;20.30;42.50;;;;;;6176228;23;20385;-78
2022/04/28 09:34:49;;;;;;;2.55;2.03;;;20.40;43.10;;;;;;6170960;23;20377;-78
2022/04/28 09:37:21;;;;;;;3.43;2.27;;;20.70;42.20;;;;;;6153528;23;20378;-81
2022/04/28 09:42:43;;;;;;;4.38;2.42;;;20.80;41.40;;;;;;6151838;23;20386;-78
2022/04/28 09:45:12;;;;;;;3.57;2.33;;;20.50;42.40;;;;;;6176439;23;20484;-80
2022/04/28 09:47:39;;;;;;;3.33;2.30;;;20.60;40.80;;;;;;6175480;23;20839;-78
2022/04/28 09:50:17;;;;;;;3.15;2.00;;;20.80;41.80;;;;;;6152218;23;20902;-80
2022/04/28 09:52:45;;;;;;;2.83;1.80;;;20.90;42.00;;;;;;6151877;23;20436;-78
2022/04/28 09:55:15;;;;;;;2.83;1.90;;;21.10;42.00;;;;;;6151540;23;20385;-78
2022/04/28 09:57:43;;;;;;;2.90;2.10;;;21.10;41.60;;;;;;6175115;23;20377;-78
2022/04/28 10:00:10;;;;;;;4.18;2.00;;;21.20;39.90;;;;;;6176367;23;20397;-81
2022/04/28 10:02:38;;;;;;;1.90;1.70;;;21.10;38.90;;;;;;6174474;23;20819;-81
2022/04/28 10:05:07;;;;;;;3.63;1.50;;;21.20;41.10;;;;;;6153259;23;20388;-81
2022/04/28 10:07:36;;;;;;;3.07;1.43;;;21.30;39.30;;;;;;6175092;23;20447;-78
2022/04/28 10:10:04;;;;;;;2.10;1.60;;;21.10;40.40;;;;;;6175970;23;20442;-78
2022/04/28 10:12:31;;;;;;;2.88;2.40;;;20.80;40.40;;;;;;6174671;23;20746;-79
2022/04/28 10:15:00;;;;;;;2.75;2.40;;;20.80;40.90;;;;;;6176214;23;20377;-80
2022/04/28 10:17:33;;;;;;;18.17;16.42;;;21.00;40.70;;;;;;6174314;23;20381;-78
2022/04/28 10:20:12;;;;;;;5.28;4.53;;;21.00;39.40;;;;;;6152858;23;20386;-78
2022/04/28 10:23:01;;;;;;;2.67;2.33;;;20.90;41.80;;;;;;6171427;23;20767;-80
2022/04/28 10:34:17;;;;;;;3.70;2.60;;;21.50;39.70;;;;;;6151753;23;20386;-79
2022/04/28 10:36:51;;;;;;;3.73;1.80;;;21.40;38.60;;;;;;6152360;23;20378;-77
2022/04/28 10:39:54;;;;;;;3.20;2.40;;;21.00;39.70;;;;;;6162388;23;20409;-80
2022/04/28 10:42:26;;;;;;;3.90;3.17;;;21.50;38.10;;;;;;6150901;23;20448;-81
2022/04/28 10:44:56;;;;;;;3.95;2.75;;;21.50;37.70;;;;;;6175433;23;20759;-77
2022/04/28 10:47:37;;;;;;;3.30;2.50;;;21.60;39.50;;;;;;6175215;23;20366;-78
2022/04/28 10:50:20;;;;;;;3.47;1.90;;;21.50;39.30;;;;;;6174376;23;20374;-78
2022/04/28 10:53:02;;;;;;;1.80;1.50;;;21.80;38.50;;;;;;6175128;23;20375;-78
2022/04/28 10:55:33;;;;;;;3.88;3.13;;;22.20;39.80;;;;;;6132963;23;20962;-80
2022/04/28 10:58:20;;;;;;;3.33;2.45;;;22.30;39.20;;;;;;6169609;23;20362;-81
2022/04/28 11:00:57;;;;;;;3.88;2.67;;;22.30;39.20;;;;;;6174374;23;20732;-78
2022/04/28 11:03:46;;;;;;;4.22;2.20;;;22.40;38.10;;;;;;6151581;23;20431;-78
2022/04/28 11:06:37;;;;;;;3.47;2.83;;;22.30;38.90;;;;;;6175361;23;20378;-78
2022/04/28 11:09:05;;;;;;;3.30;2.53;;;22.40;38.40;;;;;;6174554;23;20377;-82
2022/04/28 11:11:46;;;;;;;4.68;2.58;;;22.60;37.20;;;;;;6175088;23;20375;-79
2022/04/28 11:14:16;;;;;;;4.32;3.00;;;22.80;37.60;;;;;;6149239;23;20378;-77
2022/04/28 11:16:43;;;;;;;3.60;3.13;;;21.90;38.20;;;;;;6175585;23;20378;-79
2022/04/28 11:19:12;;;;;;;5.70;3.00;;;22.00;38.10;;;;;;6174320;23;20409;-79
2022/04/28 11:21:39;;;;;;;2.45;2.00;;;22.00;38.20;;;;;;6175337;23;20374;-79
2022/04/28 11:24:07;;;;;;;3.33;2.65;;;21.90;38.50;;;;;;6174602;23;20380;-78
2022/04/28 11:26:36;;;;;;;3.38;2.80;;;22.10;39.30;;;;;;6174732;23;20373;-82
2022/04/28 11:29:09;;;;;;;3.83;2.80;;;22.40;38.80;;;;;;6174877;23;20425;-81
2022/04/28 11:31:46;;;;;;;3.67;2.53;;;22.50;37.30;;;;;;6175172;23;20861;-78
2022/04/28 11:34:13;;;;;;;5.18;3.08;;;22.50;36.90;;;;;;6151143;23;20947;-79
2022/04/28 11:36:41;;;;;;;4.15;2.80;;;22.60;36.70;;;;;;6174878;23;20762;-78
2022/04/28 11:39:09;;;;;;;3.30;2.97;;;22.60;39.10;;;;;;6174420;23;20384;-79
2022/04/28 11:41:43;;;;;;;2.70;2.50;;;22.80;36.60;;;;;;6151528;23;20753;-79
2022/04/28 11:44:12;;;;;;;3.40;2.17;;;22.90;37.20;;;;;;6174580;23;20424;-78
2022/04/28 11:46:42;;;;;;;3.10;2.70;;;23.10;38.70;;;;;;6174156;23;20776;-79
2022/04/28 11:49:09;;;;;;;3.95;2.47;;;23.20;36.60;;;;;;6150104;23;20804;-81
2022/04/28 11:51:36;;;;;;;2.75;2.38;;;23.20;36.40;;;;;;6151741;23;20374;-79
2022/04/28 11:54:16;;;;;;;3.75;2.10;;;23.20;35.90;;;;;;6174239;23;20386;-78
2022/04/28 11:56:45;;;;;;;3.05;2.08;;;23.50;35.20;;;;;;6173555;23;21430;-78
2022/04/28 11:59:12;;;;;;;5.07;3.35;;;23.60;36.20;;;;;;6149158;23;20900;-78
2022/04/28 12:01:39;;;;;;;3.20;2.90;;;23.20;33.90;;;;;;6151803;23;20409;-77
2022/04/28 12:04:07;;;;;;;5.18;3.63;;;23.40;34.70;;;;;;6174148;23;20373;-79
2022/04/28 12:06:34;;;;;;;5.30;3.00;;;22.60;34.30;;;;;;6175317;23;20370;-79
2022/04/28 12:14:35;;;;;;;4.90;3.23;;;22.60;38.60;;;;;;6150910;23;20366;-77
2022/04/28 12:19:55;;;;;;;3.53;2.50;;;23.30;36.60;;;;;;6151225;23;20385;-81
2022/04/28 12:22:34;;;;;;;3.77;2.80;;;23.60;35.90;;;;;;6175326;23;20869;-79
2022/04/28 12:25:09;;;;;;;5.70;3.33;;;24.00;35.10;;;;;;6143831;23;21025;-79
2022/04/28 12:28:03;;;;;;;3.50;2.40;;;23.80;35.00;;;;;;6144506;23;20704;-81
2022/04/28 12:30:32;;;;;;;4.10;3.38;;;24.20;34.60;;;;;;6141556;23;20447;-81
2022/04/28 12:32:59;;;;;;;5.65;3.28;;;24.50;33.30;;;;;;6143951;23;20372;-79
2022/04/28 12:35:35;;;;;;;4.00;3.40;;;23.60;34.30;;;;;;6145275;23;20388;-79
2022/04/28 12:38:07;;;;;;;3.73;2.67;;;23.10;35.10;;;;;;6161530;23;20452;-78
2022/04/28 12:40:42;;;;;;;2.85;1.83;;;23.70;36.30;;;;;;6174699;23;20383;-78
2022/04/28 12:43:09;;;;;;;3.80;3.05;;;23.90;35.20;;;;;;6173717;23;20374;-81
2022/04/28 12:45:41;;;;;;;5.65;3.90;;;23.90;34.20;;;;;;6175172;23;20425;-79
2022/04/28 12:48:28;;;;;;;3.92;3.63;;;24.10;33.30;;;;;;6174106;23;20366;-81
2022/04/28 12:51:44;;;;;;;4.60;2.97;;;24.00;33.10;;;;;;6173674;23;20759;-79
2022/04/28 12:54:16;;;;;;;4.10;3.70;;;24.30;35.30;;;;;;6090063;23;20385;-81
2022/04/28 12:56:45;;;;;;;5.90;3.37;;;24.20;34.50;;;;;;6090599;23;20437;-81
2022/04/28 12:59:14;;;;;;;3.70;2.90;;;24.30;33.00;;;;;;6132383;23;20435;-78
2022/04/28 13:01:43;;;;;;;4.05;2.88;;;24.30;34.10;;;;;;6144646;23;20407;-79
2022/04/28 13:04:12;;;;;;;3.58;3.05;;;24.60;35.70;;;;;;6144429;23;20383;-78
2022/04/28 13:06:42;;;;;;;3.03;2.58;;;25.20;34.10;;;;;;6145262;23;20391;-81
2022/04/28 13:09:10;;;;;;;4.10;2.80;;;25.20;34.00;;;;;;6143420;23;20368;-78
2022/04/28 13:11:42;;;;;;;4.85;3.63;;;24.50;34.60;;;;;;6144572;23;20924;-79
2022/04/28 13:14:10;;;;;;;4.87;3.37;;;23.60;32.80;;;;;;6143910;23;20821;-79
2022/04/28 13:16:39;;;;;;;3.90;3.53;;;23.40;34.90;;;;;;6146929;23;20716;-81
2022/04/28 13:19:08;;;;;;;3.70;3.22;;;24.00;33.90;;;;;;6146229;23;20387;-82
2022/04/28 13:21:37;;;;;;;5.07;4.13;;;24.20;34.10;;;;;;6146169;23;20383;-79
2022/04/28 13:24:04;;;;;;;4.20;3.67;;;24.40;33.20;;;;;;6145858;23;20368;-81
2022/04/28 13:26:31;;;;;;;3.45;2.92;;;24.90;32.70;;;;;;6145114;23;20682;-79
2022/04/28 13:28:59;;;;;;;4.75;3.95;;;25.30;31.80;;;;;;6146022;23;20422;-82
2022/04/28 13:31:28;;;;;;;3.80;3.40;;;25.20;31.10;;;;;;6146194;23;20380;-81
2022/04/28 13:33:56;;;;;;;5.50;3.10;;;24.40;33.60;;;;;;6145351;23;20446;-79
2022/04/28 13:36:24;;;;;;;3.72;2.70;;;24.90;33.20;;;;;;6146358;23;20378;-82